sensor_id;sensor_type;location;lat;lon;timestamp;temperature;humidity
15394;DHT22;7795;47.986;11.868;2023-04-01T00:01:13;11.40;68.50
15394;DHT22;7795;47.986;11.868;2023-04-01T00:03:43;11.40;68.70
15394;DHT22;7795;47.986;11.868;2023-04-01T00:06:11;11.40;68.80
15394;DHT22;7795;47.986;11.868;2023-04-01T00:08:38;11.40;68.90
15394;DHT22;7795;47.986;11.868;2023-04-01T00:11:04;11.40;68.90
15394;DHT22;7795;47.986;11.868;2023-04-01T00:13:30;11.30;69.10
15394;DHT22;7795;47.986;11.868;2023-04-01T00:15:56;11.30;69.30
15394;DHT22;7795;47.986;11.868;2023-04-01T00:18:22;11.30;69.40
15394;DHT22;7795;47.986;11.868;2023-04-01T00:20:51;11.30;69.50
15394;DHT22;7795;47.986;11.868;2023-04-01T00:23:18;11.30;69.80
15394;DHT22;7795;47.986;11.868;2023-04-01T00:25:44;11.20;69.70
15394;DHT22;7795;47.986;11.868;2023-04-01T00:28:12;11.20;69.80
15394;DHT22;7795;47.986;11.868;2023-04-01T00:30:38;11.20;69.90
15394;DHT22;7795;47.986;11.868;2023-04-01T00:33:04;11.20;70.00
15394;DHT22;7795;47.986;11.868;2023-04-01T00:35:30;11.10;70.00
15394;DHT22;7795;47.986;11.868;2023-04-01T00:37:57;11.10;70.10
15394;DHT22;7795;47.986;11.868;2023-04-01T00:40:27;11.10;70.10
15394;DHT22;7795;47.986;11.868;2023-04-01T00:42:53;11.10;70.20
15394;DHT22;7795;47.986;11.868;2023-04-01T00:45:29;11.10;70.60
15394;DHT22;7795;47.986;11.868;2023-04-01T00:47:56;11.10;70.50
15394;DHT22;7795;47.986;11.868;2023-04-01T00:50:25;11.10;70.20
15394;DHT22;7795;47.986;11.868;2023-04-01T00:52:52;11.10;70.40
15394;DHT22;7795;47.986;11.868;2023-04-01T00:55:21;11.10;70.40
15394;DHT22;7795;47.986;11.868;2023-04-01T00:57:49;11.10;70.40
15394;DHT22;7795;47.986;11.868;2023-04-01T01:00:16;11.10;70.40
15394;DHT22;7795;47.986;11.868;2023-04-01T01:02:44;11.10;70.30
15394;DHT22;7795;47.986;11.868;2023-04-01T01:05:12;11.10;70.40
15394;DHT22;7795;47.986;11.868;2023-04-01T01:07:43;11.10;70.40
15394;DHT22;7795;47.986;11.868;2023-04-01T01:10:15;11.10;70.40
15394;DHT22;7795;47.986;11.868;2023-04-01T01:12:45;11.10;70.30
15394;DHT22;7795;47.986;11.868;2023-04-01T01:15:15;11.10;70.30
15394;DHT22;7795;47.986;11.868;2023-04-01T01:17:52;11.20;70.40
15394;DHT22;7795;47.986;11.868;2023-04-01T01:23:45;11.20;70.50
15394;DHT22;7795;47.986;11.868;2023-04-01T01:26:54;11.20;70.60
15394;DHT22;7795;47.986;11.868;2023-04-01T01:32:24;11.20;70.50
15394;DHT22;7795;47.986;11.868;2023-04-01T01:35:07;11.20;70.40
15394;DHT22;7795;47.986;11.868;2023-04-01T01:37:35;11.20;70.30
15394;DHT22;7795;47.986;11.868;2023-04-01T01:40:05;11.20;70.30
15394;DHT22;7795;47.986;11.868;2023-04-01T01:42:35;11.20;70.40
15394;DHT22;7795;47.986;11.868;2023-04-01T01:45:04;11.20;70.40
15394;DHT22;7795;47.986;11.868;2023-04-01T01:47:32;11.20;70.30
15394;DHT22;7795;47.986;11.868;2023-04-01T01:49:59;11.20;70.30
15394;DHT22;7795;47.986;11.868;2023-04-01T01:52:28;11.20;70.20
15394;DHT22;7795;47.986;11.868;2023-04-01T01:54:56;11.20;70.10
15394;DHT22;7795;47.986;11.868;2023-04-01T01:57:24;11.20;70.20
15394;DHT22;7795;47.986;11.868;2023-04-01T01:59:52;11.20;70.30
15394;DHT22;7795;47.986;11.868;2023-04-01T02:02:19;11.20;70.20
15394;DHT22;7795;47.986;11.868;2023-04-01T02:04:47;11.20;70.20
15394;DHT22;7795;47.986;11.868;2023-04-01T02:07:16;11.20;70.20
15394;DHT22;7795;47.986;11.868;2023-04-01T02:09:45;11.20;70.40
15394;DHT22;7795;47.986;11.868;2023-04-01T02:12:14;11.20;70.30
15394;DHT22;7795;47.986;11.868;2023-04-01T02:14:43;11.20;70.30
15394;DHT22;7795;47.986;11.868;2023-04-01T02:17:12;11.20;70.40
15394;DHT22;7795;47.986;11.868;2023-04-01T02:19:41;11.20;70.40
15394;DHT22;7795;47.986;11.868;2023-04-01T02:22:12;11.20;70.40
15394;DHT22;7795;47.986;11.868;2023-04-01T02:24:40;11.20;70.40
15394;DHT22;7795;47.986;11.868;2023-04-01T02:27:09;11.20;70.40
15394;DHT22;7795;47.986;11.868;2023-04-01T02:29:35;11.20;70.40
15394;DHT22;7795;47.986;11.868;2023-04-01T02:32:02;11.20;71.10
15394;DHT22;7795;47.986;11.868;2023-04-01T02:34:28;11.20;70.40
15394;DHT22;7795;47.986;11.868;2023-04-01T02:36:55;11.20;70.20
15394;DHT22;7795;47.986;11.868;2023-04-01T02:39:22;11.20;70.20
15394;DHT22;7795;47.986;11.868;2023-04-01T02:41:48;11.20;70.20
15394;DHT22;7795;47.986;11.868;2023-04-01T02:44:15;11.20;70.20
15394;DHT22;7795;47.986;11.868;2023-04-01T02:46:41;11.20;70.20
15394;DHT22;7795;47.986;11.868;2023-04-01T02:49:07;11.10;70.20
15394;DHT22;7795;47.986;11.868;2023-04-01T02:51:34;11.10;70.20
15394;DHT22;7795;47.986;11.868;2023-04-01T02:54:00;11.10;70.20
15394;DHT22;7795;47.986;11.868;2023-04-01T02:56:26;11.10;70.10
15394;DHT22;7795;47.986;11.868;2023-04-01T02:58:52;11.10;70.10
15394;DHT22;7795;47.986;11.868;2023-04-01T03:01:19;11.10;70.10
15394;DHT22;7795;47.986;11.868;2023-04-01T03:03:45;11.10;70.10
15394;DHT22;7795;47.986;11.868;2023-04-01T03:06:13;11.10;70.10
15394;DHT22;7795;47.986;11.868;2023-04-01T03:08:40;11.10;70.10
15394;DHT22;7795;47.986;11.868;2023-04-01T03:11:06;11.10;70.10
15394;DHT22;7795;47.986;11.868;2023-04-01T03:13:32;11.10;70.10
15394;DHT22;7795;47.986;11.868;2023-04-01T03:15:58;11.20;70.10
15394;DHT22;7795;47.986;11.868;2023-04-01T03:18:25;11.20;70.10
15394;DHT22;7795;47.986;11.868;2023-04-01T03:20:51;11.20;70.10
15394;DHT22;7795;47.986;11.868;2023-04-01T03:23:16;11.20;70.00
15394;DHT22;7795;47.986;11.868;2023-04-01T03:25:44;11.20;70.00
15394;DHT22;7795;47.986;11.868;2023-04-01T03:28:10;11.20;70.00
15394;DHT22;7795;47.986;11.868;2023-04-01T03:30:36;11.20;69.90
15394;DHT22;7795;47.986;11.868;2023-04-01T03:33:02;11.20;69.80
15394;DHT22;7795;47.986;11.868;2023-04-01T03:35:29;11.20;69.80
15394;DHT22;7795;47.986;11.868;2023-04-01T03:37:55;11.10;69.70
15394;DHT22;7795;47.986;11.868;2023-04-01T03:40:21;11.10;69.70
15394;DHT22;7795;47.986;11.868;2023-04-01T03:42:47;11.10;69.70
15394;DHT22;7795;47.986;11.868;2023-04-01T03:45:13;11.10;69.80
15394;DHT22;7795;47.986;11.868;2023-04-01T03:47:39;11.10;69.70
15394;DHT22;7795;47.986;11.868;2023-04-01T03:50:06;11.10;69.70
15394;DHT22;7795;47.986;11.868;2023-04-01T03:52:34;11.10;69.70
15394;DHT22;7795;47.986;11.868;2023-04-01T03:55:00;11.10;69.70
15394;DHT22;7795;47.986;11.868;2023-04-01T03:57:26;11.10;69.70
15394;DHT22;7795;47.986;11.868;2023-04-01T03:59:52;11.10;69.70
15394;DHT22;7795;47.986;11.868;2023-04-01T04:02:18;11.10;69.70
15394;DHT22;7795;47.986;11.868;2023-04-01T04:04:45;11.10;69.70
15394;DHT22;7795;47.986;11.868;2023-04-01T04:07:11;11.10;69.70
15394;DHT22;7795;47.986;11.868;2023-04-01T04:09:39;11.10;69.70
15394;DHT22;7795;47.986;11.868;2023-04-01T04:12:06;11.00;69.50
15394;DHT22;7795;47.986;11.868;2023-04-01T04:14:31;11.00;69.60
15394;DHT22;7795;47.986;11.868;2023-04-01T04:17:00;11.00;69.60
15394;DHT22;7795;47.986;11.868;2023-04-01T04:19:26;11.00;69.70
15394;DHT22;7795;47.986;11.868;2023-04-01T04:21:52;11.00;69.80
15394;DHT22;7795;47.986;11.868;2023-04-01T04:24:17;11.00;69.80
15394;DHT22;7795;47.986;11.868;2023-04-01T04:26:44;10.90;69.80
15394;DHT22;7795;47.986;11.868;2023-04-01T04:29:10;10.90;69.80
15394;DHT22;7795;47.986;11.868;2023-04-01T04:31:36;10.90;70.00
15394;DHT22;7795;47.986;11.868;2023-04-01T04:34:02;10.80;69.90
15394;DHT22;7795;47.986;11.868;2023-04-01T04:36:27;10.80;70.00
15394;DHT22;7795;47.986;11.868;2023-04-01T04:38:53;10.80;69.90
15394;DHT22;7795;47.986;11.868;2023-04-01T04:41:19;10.80;70.00
15394;DHT22;7795;47.986;11.868;2023-04-01T04:43:52;10.80;70.00
15394;DHT22;7795;47.986;11.868;2023-04-01T04:46:18;10.80;70.10
15394;DHT22;7795;47.986;11.868;2023-04-01T04:48:44;10.80;70.10
15394;DHT22;7795;47.986;11.868;2023-04-01T04:51:13;10.80;70.20
15394;DHT22;7795;47.986;11.868;2023-04-01T04:53:40;10.80;70.20
15394;DHT22;7795;47.986;11.868;2023-04-01T04:56:06;10.80;70.20
15394;DHT22;7795;47.986;11.868;2023-04-01T04:58:32;10.80;70.20
15394;DHT22;7795;47.986;11.868;2023-04-01T05:00:59;10.80;70.20
15394;DHT22;7795;47.986;11.868;2023-04-01T05:03:25;10.80;70.20
15394;DHT22;7795;47.986;11.868;2023-04-01T05:05:53;10.80;70.20
15394;DHT22;7795;47.986;11.868;2023-04-01T05:08:19;10.80;70.20
15394;DHT22;7795;47.986;11.868;2023-04-01T05:10:44;10.80;70.20
15394;DHT22;7795;47.986;11.868;2023-04-01T05:13:10;10.80;70.30
15394;DHT22;7795;47.986;11.868;2023-04-01T05:15:36;10.80;70.30
15394;DHT22;7795;47.986;11.868;2023-04-01T05:18:04;10.80;70.20
15394;DHT22;7795;47.986;11.868;2023-04-01T05:20:30;10.80;70.20
15394;DHT22;7795;47.986;11.868;2023-04-01T05:22:56;10.80;70.10
15394;DHT22;7795;47.986;11.868;2023-04-01T05:25:22;10.80;70.10
15394;DHT22;7795;47.986;11.868;2023-04-01T05:27:47;10.90;70.10
15394;DHT22;7795;47.986;11.868;2023-04-01T05:30:13;10.90;70.10
15394;DHT22;7795;47.986;11.868;2023-04-01T05:32:39;10.90;69.90
15394;DHT22;7795;47.986;11.868;2023-04-01T05:35:07;10.90;70.00
15394;DHT22;7795;47.986;11.868;2023-04-01T05:37:33;10.90;69.90
15394;DHT22;7795;47.986;11.868;2023-04-01T05:39:59;10.90;70.50
15394;DHT22;7795;47.986;11.868;2023-04-01T05:42:25;11.00;69.80
15394;DHT22;7795;47.986;11.868;2023-04-01T05:44:50;11.00;69.80
15394;DHT22;7795;47.986;11.868;2023-04-01T05:47:16;11.00;69.70
15394;DHT22;7795;47.986;11.868;2023-04-01T05:49:42;11.00;69.70
15394;DHT22;7795;47.986;11.868;2023-04-01T05:52:09;11.00;69.60
15394;DHT22;7795;47.986;11.868;2023-04-01T05:54:35;11.10;69.60
15394;DHT22;7795;47.986;11.868;2023-04-01T05:57:01;11.10;69.60
15394;DHT22;7795;47.986;11.868;2023-04-01T05:59:26;11.10;69.40
15394;DHT22;7795;47.986;11.868;2023-04-01T06:01:52;11.20;69.40
15394;DHT22;7795;47.986;11.868;2023-04-01T06:04:18;11.20;69.30
15394;DHT22;7795;47.986;11.868;2023-04-01T06:06:44;11.20;69.20
15394;DHT22;7795;47.986;11.868;2023-04-01T06:09:15;11.30;69.40
15394;DHT22;7795;47.986;11.868;2023-04-01T06:12:07;11.30;69.10
15394;DHT22;7795;47.986;11.868;2023-04-01T06:14:42;11.40;68.90
15394;DHT22;7795;47.986;11.868;2023-04-01T06:17:24;11.40;68.90
15394;DHT22;7795;47.986;11.868;2023-04-01T06:19:55;11.50;68.80
15394;DHT22;7795;47.986;11.868;2023-04-01T06:22:42;11.60;68.90
15394;DHT22;7795;47.986;11.868;2023-04-01T06:25:37;11.60;68.80
15394;DHT22;7795;47.986;11.868;2023-04-01T06:31:06;11.80;68.40
15394;DHT22;7795;47.986;11.868;2023-04-01T06:33:46;11.90;68.00
15394;DHT22;7795;47.986;11.868;2023-04-01T06:36:42;11.90;68.00
15394;DHT22;7795;47.986;11.868;2023-04-01T06:39:31;12.00;67.30
15394;DHT22;7795;47.986;11.868;2023-04-01T06:42:19;12.00;67.60
15394;DHT22;7795;47.986;11.868;2023-04-01T06:44:56;12.00;67.00
15394;DHT22;7795;47.986;11.868;2023-04-01T06:47:35;12.10;67.30
15394;DHT22;7795;47.986;11.868;2023-04-01T06:50:11;12.10;67.50
15394;DHT22;7795;47.986;11.868;2023-04-01T06:52:49;12.10;67.40
15394;DHT22;7795;47.986;11.868;2023-04-01T06:55:26;12.20;67.10
15394;DHT22;7795;47.986;11.868;2023-04-01T06:57:55;12.20;67.00
15394;DHT22;7795;47.986;11.868;2023-04-01T07:00:27;12.20;67.10
15394;DHT22;7795;47.986;11.868;2023-04-01T07:03:00;12.30;67.10
15394;DHT22;7795;47.986;11.868;2023-04-01T07:05:35;12.30;66.90
15394;DHT22;7795;47.986;11.868;2023-04-01T07:08:03;12.40;66.70
15394;DHT22;7795;47.986;11.868;2023-04-01T07:10:35;12.40;66.90
15394;DHT22;7795;47.986;11.868;2023-04-01T07:13:09;12.50;66.80
15394;DHT22;7795;47.986;11.868;2023-04-01T07:15:38;12.60;66.70
15394;DHT22;7795;47.986;11.868;2023-04-01T07:18:09;12.60;66.40
15394;DHT22;7795;47.986;11.868;2023-04-01T07:20:38;12.70;66.50
15394;DHT22;7795;47.986;11.868;2023-04-01T07:23:06;12.70;66.30
15394;DHT22;7795;47.986;11.868;2023-04-01T07:25:36;12.80;65.80
15394;DHT22;7795;47.986;11.868;2023-04-01T07:28:06;12.80;65.40
15394;DHT22;7795;47.986;11.868;2023-04-01T07:30:46;12.90;65.40
15394;DHT22;7795;47.986;11.868;2023-04-01T07:33:16;12.90;65.20
15394;DHT22;7795;47.986;11.868;2023-04-01T07:35:47;12.90;64.90
15394;DHT22;7795;47.986;11.868;2023-04-01T07:38:22;12.90;65.20
15394;DHT22;7795;47.986;11.868;2023-04-01T07:40:58;12.90;65.00
15394;DHT22;7795;47.986;11.868;2023-04-01T07:43:38;12.90;64.50
15394;DHT22;7795;47.986;11.868;2023-04-01T07:46:14;12.90;64.70
15394;DHT22;7795;47.986;11.868;2023-04-01T07:48:49;12.90;64.80
15394;DHT22;7795;47.986;11.868;2023-04-01T07:51:18;12.90;64.70
15394;DHT22;7795;47.986;11.868;2023-04-01T07:53:49;13.00;65.00
15394;DHT22;7795;47.986;11.868;2023-04-01T07:56:20;13.00;65.00
15394;DHT22;7795;47.986;11.868;2023-04-01T07:58:58;13.10;64.60
15394;DHT22;7795;47.986;11.868;2023-04-01T08:01:32;13.10;64.60
15394;DHT22;7795;47.986;11.868;2023-04-01T08:04:22;13.10;64.60
15394;DHT22;7795;47.986;11.868;2023-04-01T08:06:54;13.10;63.60
15394;DHT22;7795;47.986;11.868;2023-04-01T08:09:26;13.20;64.00
15394;DHT22;7795;47.986;11.868;2023-04-01T08:12:04;13.20;64.10
15394;DHT22;7795;47.986;11.868;2023-04-01T08:14:43;13.20;64.30
15394;DHT22;7795;47.986;11.868;2023-04-01T08:17:13;13.20;64.20
15394;DHT22;7795;47.986;11.868;2023-04-01T08:19:52;13.20;64.50
15394;DHT22;7795;47.986;11.868;2023-04-01T08:22:25;13.20;64.30
15394;DHT22;7795;47.986;11.868;2023-04-01T08:24:54;13.30;64.70
15394;DHT22;7795;47.986;11.868;2023-04-01T08:27:25;13.40;64.20
15394;DHT22;7795;47.986;11.868;2023-04-01T08:29:58;13.40;63.50
15394;DHT22;7795;47.986;11.868;2023-04-01T08:32:28;13.50;63.40
15394;DHT22;7795;47.986;11.868;2023-04-01T08:35:02;13.50;63.10
15394;DHT22;7795;47.986;11.868;2023-04-01T08:37:31;13.60;62.90
15394;DHT22;7795;47.986;11.868;2023-04-01T08:40:01;13.60;
15394;DHT22;7795;47.986;11.868;2023-04-01T08:42:49;13.70;62.70
15394;DHT22;7795;47.986;11.868;2023-04-01T08:45:30;13.70;62.60
15394;DHT22;7795;47.986;11.868;2023-04-01T08:48:16;13.70;62.30
15394;DHT22;7795;47.986;11.868;2023-04-01T08:54:13;13.80;62.20
15394;DHT22;7795;47.986;11.868;2023-04-01T08:56:47;13.90;61.80
15394;DHT22;7795;47.986;11.868;2023-04-01T08:59:28;13.90;62.80
15394;DHT22;7795;47.986;11.868;2023-04-01T09:02:16;13.90;61.60
15394;DHT22;7795;47.986;11.868;2023-04-01T09:07:48;14.00;61.40
15394;DHT22;7795;47.986;11.868;2023-04-01T09:10:40;14.10;61.50
15394;DHT22;7795;47.986;11.868;2023-04-01T09:13:27;14.10;60.60
15394;DHT22;7795;47.986;11.868;2023-04-01T09:19:12;14.20;60.80
15394;DHT22;7795;47.986;11.868;2023-04-01T09:24:42;14.30;60.60
15394;DHT22;7795;47.986;11.868;2023-04-01T09:27:19;14.40;60.00
15394;DHT22;7795;47.986;11.868;2023-04-01T09:33:09;14.60;60.30
15394;DHT22;7795;47.986;11.868;2023-04-01T09:35:47;14.70;59.50
15394;DHT22;7795;47.986;11.868;2023-04-01T09:38:21;14.80;59.30
15394;DHT22;7795;47.986;11.868;2023-04-01T09:40:54;14.90;58.80
15394;DHT22;7795;47.986;11.868;2023-04-01T09:43:27;14.90;59.70
15394;DHT22;7795;47.986;11.868;2023-04-01T09:46:04;15.00;58.60
15394;DHT22;7795;47.986;11.868;2023-04-01T09:48:43;15.00;59.30
15394;DHT22;7795;47.986;11.868;2023-04-01T09:51:25;15.10;59.20
15394;DHT22;7795;47.986;11.868;2023-04-01T09:54:02;15.20;58.70
15394;DHT22;7795;47.986;11.868;2023-04-01T09:57:11;15.20;59.10
15394;DHT22;7795;47.986;11.868;2023-04-01T10:00:05;15.30;57.90
15394;DHT22;7795;47.986;11.868;2023-04-01T10:06:09;15.40;57.10
15394;DHT22;7795;47.986;11.868;2023-04-01T10:09:23;15.50;57.20
15394;DHT22;7795;47.986;11.868;2023-04-01T10:12:21;15.60;57.40
15394;DHT22;7795;47.986;11.868;2023-04-01T10:15:29;15.70;58.20
15394;DHT22;7795;47.986;11.868;2023-04-01T10:21:20;15.80;55.90
15394;DHT22;7795;47.986;11.868;2023-04-01T10:24:28;15.80;55.40
15394;DHT22;7795;47.986;11.868;2023-04-01T10:27:24;15.80;54.60
15394;DHT22;7795;47.986;11.868;2023-04-01T10:33:15;15.90;56.20
15394;DHT22;7795;47.986;11.868;2023-04-01T10:36:18;15.90;56.80
15394;DHT22;7795;47.986;11.868;2023-04-01T10:39:21;16.00;55.00
15394;DHT22;7795;47.986;11.868;2023-04-01T10:42:32;16.00;55.80
15394;DHT22;7795;47.986;11.868;2023-04-01T10:51:09;16.00;55.80
15394;DHT22;7795;47.986;11.868;2023-04-01T10:53:43;16.10;55.30
15394;DHT22;7795;47.986;11.868;2023-04-01T10:56:34;16.00;55.50
15394;DHT22;7795;47.986;11.868;2023-04-01T10:59:20;16.00;54.60
15394;DHT22;7795;47.986;11.868;2023-04-01T11:05:25;16.00;55.00
15394;DHT22;7795;47.986;11.868;2023-04-01T11:08:19;16.10;54.70
15394;DHT22;7795;47.986;11.868;2023-04-01T11:11:28;16.00;54.40
15394;DHT22;7795;47.986;11.868;2023-04-01T11:14:32;16.00;54.40
15394;DHT22;7795;47.986;11.868;2023-04-01T11:20:28;15.90;55.10
15394;DHT22;7795;47.986;11.868;2023-04-01T11:23:28;15.90;55.50
15394;DHT22;7795;47.986;11.868;2023-04-01T11:26:08;16.00;55.50
15394;DHT22;7795;47.986;11.868;2023-04-01T11:28:47;16.00;55.70
15394;DHT22;7795;47.986;11.868;2023-04-01T11:31:28;16.00;56.10
15394;DHT22;7795;47.986;11.868;2023-04-01T11:33:57;16.00;56.10
15394;DHT22;7795;47.986;11.868;2023-04-01T11:36:36;16.00;56.10
15394;DHT22;7795;47.986;11.868;2023-04-01T11:39:18;16.00;55.70
15394;DHT22;7795;47.986;11.868;2023-04-01T11:41:54;16.00;55.40
15394;DHT22;7795;47.986;11.868;2023-04-01T11:44:24;16.00;55.90
15394;DHT22;7795;47.986;11.868;2023-04-01T11:47:07;15.90;55.80
15394;DHT22;7795;47.986;11.868;2023-04-01T11:49:57;15.90;55.40
15394;DHT22;7795;47.986;11.868;2023-04-01T11:52:38;15.90;55.10
15394;DHT22;7795;47.986;11.868;2023-04-01T11:55:28;15.80;55.90
15394;DHT22;7795;47.986;11.868;2023-04-01T11:58:14;15.70;55.80
15394;DHT22;7795;47.986;11.868;2023-04-01T12:01:08;15.70;57.00
15394;DHT22;7795;47.986;11.868;2023-04-01T12:03:54;15.70;56.70
15394;DHT22;7795;47.986;11.868;2023-04-01T12:06:32;15.70;56.50
15394;DHT22;7795;47.986;11.868;2023-04-01T12:09:07;15.60;56.60
15394;DHT22;7795;47.986;11.868;2023-04-01T12:11:41;15.60;56.70
15394;DHT22;7795;47.986;11.868;2023-04-01T12:14:16;15.60;57.00
15394;DHT22;7795;47.986;11.868;2023-04-01T12:16:57;15.50;56.70
15394;DHT22;7795;47.986;11.868;2023-04-01T12:19:35;15.40;57.00
15394;DHT22;7795;47.986;11.868;2023-04-01T12:22:14;15.30;57.60
15394;DHT22;7795;47.986;11.868;2023-04-01T12:24:46;15.20;57.60
15394;DHT22;7795;47.986;11.868;2023-04-01T12:27:41;15.00;58.00
15394;DHT22;7795;47.986;11.868;2023-04-01T12:30:37;14.90;58.40
15394;DHT22;7795;47.986;11.868;2023-04-01T12:33:35;14.80;58.30
15394;DHT22;7795;47.986;11.868;2023-04-01T12:36:18;14.70;59.20
15394;DHT22;7795;47.986;11.868;2023-04-01T12:38:57;14.60;58.90
15394;DHT22;7795;47.986;11.868;2023-04-01T12:41:33;14.50;59.00
15394;DHT22;7795;47.986;11.868;2023-04-01T12:44:26;14.30;59.40
15394;DHT22;7795;47.986;11.868;2023-04-01T12:47:21;14.20;60.00
15394;DHT22;7795;47.986;11.868;2023-04-01T12:50:02;14.10;60.90
15394;DHT22;7795;47.986;11.868;2023-04-01T12:52:48;14.00;61.20
15394;DHT22;7795;47.986;11.868;2023-04-01T12:55:41;13.90;61.00
15394;DHT22;7795;47.986;11.868;2023-04-01T12:58:34;13.80;61.90
15394;DHT22;7795;47.986;11.868;2023-04-01T13:01:24;13.70;62.20
15394;DHT22;7795;47.986;11.868;2023-04-01T13:07:19;13.60;62.80
15394;DHT22;7795;47.986;11.868;2023-04-01T13:09:55;13.50;62.90
15394;DHT22;7795;47.986;11.868;2023-04-01T13:15:24;13.40;64.10
15394;DHT22;7795;47.986;11.868;2023-04-01T13:17:57;13.40;63.00
15394;DHT22;7795;47.986;11.868;2023-04-01T13:20:33;13.40;63.10
15394;DHT22;7795;47.986;11.868;2023-04-01T13:23:10;13.30;63.50
15394;DHT22;7795;47.986;11.868;2023-04-01T13:25:47;13.30;63.60
15394;DHT22;7795;47.986;11.868;2023-04-01T13:28:20;13.30;64.00
15394;DHT22;7795;47.986;11.868;2023-04-01T13:30:51;13.30;64.10
15394;DHT22;7795;47.986;11.868;2023-04-01T13:33:25;13.30;64.00
15394;DHT22;7795;47.986;11.868;2023-04-01T13:36:02;13.30;63.90
15394;DHT22;7795;47.986;11.868;2023-04-01T13:38:59;13.30;63.80
15394;DHT22;7795;47.986;11.868;2023-04-01T13:41:45;13.30;64.20
15394;DHT22;7795;47.986;11.868;2023-04-01T13:44:16;13.30;64.00
15394;DHT22;7795;47.986;11.868;2023-04-01T13:47:10;13.30;63.70
15394;DHT22;7795;47.986;11.868;2023-04-01T13:49:53;13.30;64.30
15394;DHT22;7795;47.986;11.868;2023-04-01T13:55:52;13.20;64.00
15394;DHT22;7795;47.986;11.868;2023-04-01T13:58:36;13.20;64.60
15394;DHT22;7795;47.986;11.868;2023-04-01T14:01:13;13.20;64.60
15394;DHT22;7795;47.986;11.868;2023-04-01T14:03:53;13.20;64.60
15394;DHT22;7795;47.986;11.868;2023-04-01T14:06:33;13.20;65.40
15394;DHT22;7795;47.986;11.868;2023-04-01T14:09:29;13.10;64.60
15394;DHT22;7795;47.986;11.868;2023-04-01T14:12:04;13.10;65.20
15394;DHT22;7795;47.986;11.868;2023-04-01T14:14:42;13.00;64.70
15394;DHT22;7795;47.986;11.868;2023-04-01T14:17:42;13.00;65.00
15394;DHT22;7795;47.986;11.868;2023-04-01T14:20:28;13.00;65.60
15394;DHT22;7795;47.986;11.868;2023-04-01T14:23:28;13.00;65.70
15394;DHT22;7795;47.986;11.868;2023-04-01T14:26:12;13.00;66.40
15394;DHT22;7795;47.986;11.868;2023-04-01T14:28:48;12.90;65.70
15394;DHT22;7795;47.986;11.868;2023-04-01T14:31:41;12.90;65.40
15394;DHT22;7795;47.986;11.868;2023-04-01T14:34:19;12.90;66.00
15394;DHT22;7795;47.986;11.868;2023-04-01T14:37:12;12.90;65.80
15394;DHT22;7795;47.986;11.868;2023-04-01T14:39:55;12.90;66.00
15394;DHT22;7795;47.986;11.868;2023-04-01T14:42:45;12.90;66.00
15394;DHT22;7795;47.986;11.868;2023-04-01T14:48:24;12.90;66.30
15394;DHT22;7795;47.986;11.868;2023-04-01T14:50:53;12.80;66.10
15394;DHT22;7795;47.986;11.868;2023-04-01T14:53:27;12.80;65.90
15394;DHT22;7795;47.986;11.868;2023-04-01T14:55:55;12.80;66.20
15394;DHT22;7795;47.986;11.868;2023-04-01T14:58:23;12.80;66.20
15394;DHT22;7795;47.986;11.868;2023-04-01T15:01:12;12.80;66.30
15394;DHT22;7795;47.986;11.868;2023-04-01T15:03:50;12.80;67.00
15394;DHT22;7795;47.986;11.868;2023-04-01T15:06:42;12.80;66.70
15394;DHT22;7795;47.986;11.868;2023-04-01T15:09:17;12.80;67.30
15394;DHT22;7795;47.986;11.868;2023-04-01T15:11:58;12.90;67.00
15394;DHT22;7795;47.986;11.868;2023-04-01T15:14:45;12.90;67.00
15394;DHT22;7795;47.986;11.868;2023-04-01T15:17:23;12.90;67.30
15394;DHT22;7795;47.986;11.868;2023-04-01T15:23:06;12.90;67.10
15394;DHT22;7795;47.986;11.868;2023-04-01T15:25:43;12.90;67.00
15394;DHT22;7795;47.986;11.868;2023-04-01T15:28:17;12.90;66.90
15394;DHT22;7795;47.986;11.868;2023-04-01T15:30:50;13.00;66.90
15394;DHT22;7795;47.986;11.868;2023-04-01T15:33:43;13.00;66.60
15394;DHT22;7795;47.986;11.868;2023-04-01T15:36:23;13.00;67.30
15394;DHT22;7795;47.986;11.868;2023-04-01T15:38:57;13.00;66.70
15394;DHT22;7795;47.986;11.868;2023-04-01T15:41:36;13.00;66.40
15394;DHT22;7795;47.986;11.868;2023-04-01T15:44:27;13.00;66.70
15394;DHT22;7795;47.986;11.868;2023-04-01T15:47:00;13.00;66.60
15394;DHT22;7795;47.986;11.868;2023-04-01T15:49:33;13.00;66.40
15394;DHT22;7795;47.986;11.868;2023-04-01T15:52:07;13.00;66.20
15394;DHT22;7795;47.986;11.868;2023-04-01T15:55:01;12.90;66.00
15394;DHT22;7795;47.986;11.868;2023-04-01T15:57:39;12.90;66.20
15394;DHT22;7795;47.986;11.868;2023-04-01T16:00:18;12.90;66.10
15394;DHT22;7795;47.986;11.868;2023-04-01T16:02:48;12.90;66.00
15394;DHT22;7795;47.986;11.868;2023-04-01T16:05:35;12.90;66.00
15394;DHT22;7795;47.986;11.868;2023-04-01T16:08:16;12.90;66.00
15394;DHT22;7795;47.986;11.868;2023-04-01T16:10:56;12.90;66.30
15394;DHT22;7795;47.986;11.868;2023-04-01T16:13:42;13.00;66.10
15394;DHT22;7795;47.986;11.868;2023-04-01T16:16:19;13.00;66.10
15394;DHT22;7795;47.986;11.868;2023-04-01T16:19:17;13.00;66.10
15394;DHT22;7795;47.986;11.868;2023-04-01T16:21:51;13.00;66.40
15394;DHT22;7795;47.986;11.868;2023-04-01T16:24:24;13.00;66.30
15394;DHT22;7795;47.986;11.868;2023-04-01T16:27:00;13.00;67.00
15394;DHT22;7795;47.986;11.868;2023-04-01T16:29:35;13.00;66.30
15394;DHT22;7795;47.986;11.868;2023-04-01T16:32:15;13.10;66.10
15394;DHT22;7795;47.986;11.868;2023-04-01T16:34:46;13.10;66.30
15394;DHT22;7795;47.986;11.868;2023-04-01T16:37:19;13.10;66.20
15394;DHT22;7795;47.986;11.868;2023-04-01T16:39:52;13.10;66.10
15394;DHT22;7795;47.986;11.868;2023-04-01T16:42:26;13.10;66.10
15394;DHT22;7795;47.986;11.868;2023-04-01T16:45:00;13.10;66.10
15394;DHT22;7795;47.986;11.868;2023-04-01T16:47:30;13.20;66.10
15394;DHT22;7795;47.986;11.868;2023-04-01T16:49:59;13.10;65.80
15394;DHT22;7795;47.986;11.868;2023-04-01T16:52:42;13.10;65.60
15394;DHT22;7795;47.986;11.868;2023-04-01T16:55:17;13.10;65.70
15394;DHT22;7795;47.986;11.868;2023-04-01T16:57:48;13.10;65.60
15394;DHT22;7795;47.986;11.868;2023-04-01T17:00:23;13.10;65.60
15394;DHT22;7795;47.986;11.868;2023-04-01T17:02:56;13.10;65.70
15394;DHT22;7795;47.986;11.868;2023-04-01T17:05:39;13.10;65.40
15394;DHT22;7795;47.986;11.868;2023-04-01T17:08:13;13.10;65.00
15394;DHT22;7795;47.986;11.868;2023-04-01T17:10:51;13.10;64.80
15394;DHT22;7795;47.986;11.868;2023-04-01T17:13:40;13.10;65.00
15394;DHT22;7795;47.986;11.868;2023-04-01T17:16:28;13.00;64.70
15394;DHT22;7795;47.986;11.868;2023-04-01T17:19:01;13.00;64.50
15394;DHT22;7795;47.986;11.868;2023-04-01T17:21:45;13.00;64.50
15394;DHT22;7795;47.986;11.868;2023-04-01T17:24:24;12.90;64.40